sensor_id;sensor_type;location;lat;lon;timestamp;pressure;altitude;pressure_sealevel;temperature;humidity
34696;BME280;20918;51.138;17.370;2022-12-18T00:01:16;101809.78;;;-6.22;86.11
34696;BME280;20918;51.138;17.370;2022-12-18T00:04:21;101815.43;;;-6.24;86.10
34696;BME280;20918;51.138;17.370;2022-12-18T00:07:24;101816.77;;;-6.27;86.10
34696;BME280;20918;51.138;17.370;2022-12-18T00:10:25;101816.36;;;-6.30;86.16
34696;BME280;20918;51.138;17.370;2022-12-18T00:13:28;101813.37;;;-6.33;86.13
34696;BME280;20918;51.138;17.370;2022-12-18T00:16:29;101815.95;;;-6.34;86.15
34696;BME280;20918;51.138;17.370;2022-12-18T00:19:32;101815.11;;;-6.35;86.20
34696;BME280;20918;51.138;17.370;2022-12-18T00:22:33;101819.43;;;-6.37;86.22
34696;BME280;20918;51.138;17.370;2022-12-18T00:25:34;101822.05;;;-6.40;86.24
34696;BME280;20918;51.138;17.370;2022-12-18T00:28:35;101824.19;;;-6.39;86.32
34696;BME280;20918;51.138;17.370;2022-12-18T00:31:37;101827.66;;;-6.39;86.39
34696;BME280;20918;51.138;17.370;2022-12-18T00:34:38;101830.23;;;-6.39;86.35
34696;BME280;20918;51.138;17.370;2022-12-18T00:37:39;101840.16;;;-6.41;86.35
34696;BME280;20918;51.138;17.370;2022-12-18T00:40:40;101835.41;;;-6.39;86.41
34696;BME280;20918;51.138;17.370;2022-12-18T00:43:41;101840.09;;;-6.37;86.41
34696;BME280;20918;51.138;17.370;2022-12-18T00:46:42;101851.69;;;-6.34;86.45
34696;BME280;20918;51.138;17.370;2022-12-18T00:49:44;101852.12;;;-6.33;86.45
34696;BME280;20918;51.138;17.370;2022-12-18T00:52:45;101862.86;;;-6.32;86.42
34696;BME280;20918;51.138;17.370;2022-12-18T00:55:46;101854.67;;;-6.31;86.40
34696;BME280;20918;51.138;17.370;2022-12-18T00:58:47;101867.59;;;-6.29;86.43
34696;BME280;20918;51.138;17.370;2022-12-18T01:01:48;101875.75;;;-6.28;86.42
34696;BME280;20918;51.138;17.370;2022-12-18T01:04:49;101881.77;;;-6.26;86.45
34696;BME280;20918;51.138;17.370;2022-12-18T01:07:52;101883.05;;;-6.26;86.41
34696;BME280;20918;51.138;17.370;2022-12-18T01:10:53;101889.11;;;-6.29;86.35
34696;BME280;20918;51.138;17.370;2022-12-18T01:13:54;101895.20;;;-6.35;86.30
34696;BME280;20918;51.138;17.370;2022-12-18T01:16:56;101904.71;;;-6.40;86.37
34696;BME280;20918;51.138;17.370;2022-12-18T01:19:57;101896.14;;;-6.42;86.47
34696;BME280;20918;51.138;17.370;2022-12-18T01:22:58;101903.48;;;-6.46;86.55
34696;BME280;20918;51.138;17.370;2022-12-18T01:26:03;101909.13;;;-6.51;86.53
34696;BME280;20918;51.138;17.370;2022-12-18T01:29:08;101911.77;;;-6.57;86.54
34696;BME280;20918;51.138;17.370;2022-12-18T01:32:08;101904.49;;;-6.62;86.61
34696;BME280;20918;51.138;17.370;2022-12-18T01:35:09;101911.42;;;-6.67;86.69
34696;BME280;20918;51.138;17.370;2022-12-18T01:38:10;101920.08;;;-6.70;86.76
34696;BME280;20918;51.138;17.370;2022-12-18T01:41:12;101928.27;;;-6.72;86.81
34696;BME280;20918;51.138;17.370;2022-12-18T01:47:56;101923.09;;;-6.73;86.93
34696;BME280;20918;51.138;17.370;2022-12-18T01:51:04;101916.64;;;-6.72;86.99
34696;BME280;20918;51.138;17.370;2022-12-18T01:54:07;101925.70;;;-6.77;86.99
34696;BME280;20918;51.138;17.370;2022-12-18T01:57:08;101922.27;;;-6.79;87.11
34696;BME280;20918;51.138;17.370;2022-12-18T02:00:15;101929.61;;;-6.78;87.16
34696;BME280;20918;51.138;17.370;2022-12-18T02:03:19;101942.07;;;-6.79;87.24
34696;BME280;20918;51.138;17.370;2022-12-18T02:06:29;101942.92;;;-6.79;87.36
34696;BME280;20918;51.138;17.370;2022-12-18T02:09:41;101948.97;;;-6.78;87.39
34696;BME280;20918;51.138;17.370;2022-12-18T02:16:28;101942.90;;;-6.74;87.40
34696;BME280;20918;51.138;17.370;2022-12-18T02:26:21;101944.19;;;-6.74;87.50
34696;BME280;20918;51.138;17.370;2022-12-18T02:29:41;101954.98;;;-6.78;87.48
34696;BME280;20918;51.138;17.370;2022-12-18T02:32:46;101957.12;;;-6.75;87.60
34696;BME280;20918;51.138;17.370;2022-12-18T02:35:49;101961.80;;;-6.70;87.64
34696;BME280;20918;51.138;17.370;2022-12-18T02:38:55;101962.21;;;-6.66;87.67
34696;BME280;20918;51.138;17.370;2022-12-18T02:41:57;101963.45;;;-6.60;87.63
34696;BME280;20918;51.138;17.370;2022-12-18T02:44:59;101964.74;;;-6.59;87.60
34696;BME280;20918;51.138;17.370;2022-12-18T02:48:01;101963.83;;;-6.53;87.67
34696;BME280;20918;51.138;17.370;2022-12-18T02:51:08;101957.73;;;-6.46;87.70
34696;BME280;20918;51.138;17.370;2022-12-18T03:00:40;101968.00;;;-6.40;87.61
34696;BME280;20918;51.138;17.370;2022-12-18T03:04:03;101971.44;;;-6.39;87.57
34696;BME280;20918;51.138;17.370;2022-12-18T03:06:54;101978.36;;;-6.41;87.49
34696;BME280;20918;51.138;17.370;2022-12-18T03:09:56;101974.93;;;-6.43;87.53
34696;BME280;20918;51.138;17.370;2022-12-18T03:13:06;101974.92;;;-6.45;87.55
34696;BME280;20918;51.138;17.370;2022-12-18T03:16:06;101975.39;;;-6.48;87.57
34696;BME280;20918;51.138;17.370;2022-12-18T03:19:14;101971.96;;;-6.49;87.69
34696;BME280;20918;51.138;17.370;2022-12-18T03:22:16;101971.96;;;-6.49;87.74
34696;BME280;20918;51.138;17.370;2022-12-18T03:25:18;101975.42;;;-6.51;87.75
34696;BME280;20918;51.138;17.370;2022-12-18T03:28:21;101977.53;;;-6.48;87.86
34696;BME280;20918;51.138;17.370;2022-12-18T03:31:24;101989.58;;;-6.44;88.00
34696;BME280;20918;51.138;17.370;2022-12-18T03:34:28;101986.52;;;-6.39;88.04
34696;BME280;20918;51.138;17.370;2022-12-18T03:37:32;101990.75;;;-6.32;88.05
34696;BME280;20918;51.138;17.370;2022-12-18T03:40:44;101990.75;;;-6.30;87.90
34696;BME280;20918;51.138;17.370;2022-12-18T03:47:30;101988.98;;;-6.28;87.75
34696;BME280;20918;51.138;17.370;2022-12-18T03:53:58;101998.88;;;-6.26;87.81
34696;BME280;20918;51.138;17.370;2022-12-18T03:57:04;101991.95;;;-6.19;87.94
34696;BME280;20918;51.138;17.370;2022-12-18T04:00:15;101991.89;;;-6.15;87.90
34696;BME280;20918;51.138;17.370;2022-12-18T04:03:25;101995.33;;;-6.13;87.83
34696;BME280;20918;51.138;17.370;2022-12-18T04:06:30;101997.06;;;-6.15;87.67
34696;BME280;20918;51.138;17.370;2022-12-18T04:09:33;102003.96;;;-6.14;87.66
34696;BME280;20918;51.138;17.370;2022-12-18T04:12:34;102008.75;;;-6.21;87.55
34696;BME280;20918;51.138;17.370;2022-12-18T04:15:38;102009.16;;;-6.20;87.68
34696;BME280;20918;51.138;17.370;2022-12-18T04:18:41;102010.86;;;-6.17;87.73
34696;BME280;20918;51.138;17.370;2022-12-18T04:21:42;102015.18;;;-6.16;87.67
34696;BME280;20918;51.138;17.370;2022-12-18T04:24:44;102019.09;;;-6.19;87.57
34696;BME280;20918;51.138;17.370;2022-12-18T04:27:53;102029.42;;;-6.22;87.53
34696;BME280;20918;51.138;17.370;2022-12-18T04:30:54;102025.55;;;-6.22;87.58
34696;BME280;20918;51.138;17.370;2022-12-18T04:33:55;102039.73;;;-6.18;87.69
34696;BME280;20918;51.138;17.370;2022-12-18T04:36:57;102045.30;;;-6.15;87.75
34696;BME280;20918;51.138;17.370;2022-12-18T04:39:59;102043.13;;;-6.13;87.74
34696;BME280;20918;51.138;17.370;2022-12-18T04:43:02;102043.13;;;-6.13;87.62
34696;BME280;20918;51.138;17.370;2022-12-18T04:46:04;102050.83;;;-6.06;87.70
34696;BME280;20918;51.138;17.370;2022-12-18T04:49:06;102056.84;;;-6.06;87.58
34696;BME280;20918;51.138;17.370;2022-12-18T04:52:06;102068.04;;;-6.02;87.66
34696;BME280;20918;51.138;17.370;2022-12-18T04:55:07;102068.86;;;-6.00;87.64
34696;BME280;20918;51.138;17.370;2022-12-18T04:58:11;102073.16;;;-5.96;87.62
34696;BME280;20918;51.138;17.370;2022-12-18T05:01:13;102075.73;;;-5.96;87.54
34696;BME280;20918;51.138;17.370;2022-12-18T05:04:14;102084.34;;;-5.96;87.50
34696;BME280;20918;51.138;17.370;2022-12-18T05:07:15;102079.64;;;-6.01;87.40
34696;BME280;20918;51.138;17.370;2022-12-18T05:10:18;102078.79;;;-6.03;87.40
34696;BME280;20918;51.138;17.370;2022-12-18T05:13:19;102073.23;;;-6.07;87.38
34696;BME280;20918;51.138;17.370;2022-12-18T05:16:20;102076.27;;;-6.09;87.36
34696;BME280;20918;51.138;17.370;2022-12-18T05:19:21;102081.41;;;-6.06;87.46
34696;BME280;20918;51.138;17.370;2022-12-18T05:22:22;102075.80;;;-6.02;87.47
34696;BME280;20918;51.138;17.370;2022-12-18T05:25:23;102070.56;;;-5.98;87.50
34696;BME280;20918;51.138;17.370;2022-12-18T05:28:24;102072.30;;;-5.97;87.36
34696;BME280;20918;51.138;17.370;2022-12-18T05:31:27;102080.05;;;-6.00;87.22
34696;BME280;20918;51.138;17.370;2022-12-18T05:34:30;102079.64;;;-6.01;87.20
34696;BME280;20918;51.138;17.370;2022-12-18T05:37:31;102078.80;;;-6.01;87.20
34696;BME280;20918;51.138;17.370;2022-12-18T05:40:32;102080.49;;;-6.00;87.29
34696;BME280;20918;51.138;17.370;2022-12-18T05:43:34;102080.05;;;-6.00;87.23
34696;BME280;20918;51.138;17.370;2022-12-18T05:46:36;102083.96;;;-6.03;87.23
34696;BME280;20918;51.138;17.370;2022-12-18T05:49:36;102088.66;;;-5.98;87.24
34696;BME280;20918;51.138;17.370;2022-12-18T05:52:37;102105.88;;;-5.94;87.30
34696;BME280;20918;51.138;17.370;2022-12-18T05:55:39;102095.53;;;-5.94;87.13
34696;BME280;20918;51.138;17.370;2022-12-18T05:58:41;102097.30;;;-5.99;87.00
34696;BME280;20918;51.138;17.370;2022-12-18T06:01:42;102107.25;;;-6.04;86.88
34696;BME280;20918;51.138;17.370;2022-12-18T06:04:43;102115.45;;;-6.05;86.98
34696;BME280;20918;51.138;17.370;2022-12-18T06:07:44;102116.30;;;-6.04;86.96
34696;BME280;20918;51.138;17.370;2022-12-18T06:10:49;102124.94;;;-6.07;86.96
34696;BME280;20918;51.138;17.370;2022-12-18T06:13:53;102121.49;;;-6.09;86.92
34696;BME280;20918;51.138;17.370;2022-12-18T06:16:55;102129.25;;;-6.09;86.99
34696;BME280;20918;51.138;17.370;2022-12-18T06:19:56;102133.56;;;-6.08;86.90
34696;BME280;20918;51.138;17.370;2022-12-18T06:22:58;102138.73;;;-6.10;86.87
34696;BME280;20918;51.138;17.370;2022-12-18T06:26:03;102142.20;;;-6.12;86.69
34696;BME280;20918;51.138;17.370;2022-12-18T06:29:06;102145.23;;;-6.17;86.52
34696;BME280;20918;51.138;17.370;2022-12-18T06:32:07;102153.45;;;-6.21;86.58
34696;BME280;20918;51.138;17.370;2022-12-18T06:35:09;102155.19;;;-6.21;86.62
34696;BME280;20918;51.138;17.370;2022-12-18T06:38:10;102155.63;;;-6.22;86.69
34696;BME280;20918;51.138;17.370;2022-12-18T06:41:12;102168.48;;;-6.14;86.86
34696;BME280;20918;51.138;17.370;2022-12-18T06:44:14;102177.92;;;-6.07;86.83
34696;BME280;20918;51.138;17.370;2022-12-18T06:47:15;102174.45;;;-6.04;86.70
34696;BME280;20918;51.138;17.370;2022-12-18T06:50:16;102183.90;;;-5.99;86.74
34696;BME280;20918;51.138;17.370;2022-12-18T06:53:17;102184.36;;;-6.02;86.37
34696;BME280;20918;51.138;17.370;2022-12-18T06:56:18;102186.52;;;-6.06;86.23
34696;BME280;20918;51.138;17.370;2022-12-18T06:59:19;102196.45;;;-6.09;86.21
34696;BME280;20918;51.138;17.370;2022-12-18T07:02:20;102188.25;;;-6.09;86.24
34696;BME280;20918;51.138;17.370;2022-12-18T07:05:25;102190.42;;;-6.11;86.16
34696;BME280;20918;51.138;17.370;2022-12-18T07:08:24;102198.63;;;-6.10;86.25
34696;BME280;20918;51.138;17.370;2022-12-18T07:11:25;102199.89;;;-6.07;86.36
34696;BME280;20918;51.138;17.370;2022-12-18T07:14:26;102195.55;;;-6.02;86.36
34696;BME280;20918;51.138;17.370;2022-12-18T07:17:27;102193.80;;;-6.00;86.28
34696;BME280;20918;51.138;17.370;2022-12-18T07:20:29;102198.09;;;-5.97;86.16
34696;BME280;20918;51.138;17.370;2022-12-18T07:23:32;102208.44;;;-5.96;86.17
34696;BME280;20918;51.138;17.370;2022-12-18T07:26:34;102204.50;;;-5.93;86.08
34696;BME280;20918;51.138;17.370;2022-12-18T07:29:35;102207.14;;;-5.96;85.92
34696;BME280;20918;51.138;17.370;2022-12-18T07:32:36;102215.30;;;-5.95;85.91
34696;BME280;20918;51.138;17.370;2022-12-18T07:35:37;102213.11;;;-5.91;86.01
34696;BME280;20918;51.138;17.370;2022-12-18T07:38:39;102216.06;;;-5.83;86.13
34696;BME280;20918;51.138;17.370;2022-12-18T07:41:40;102216.45;;;-5.76;86.11
34696;BME280;20918;51.138;17.370;2022-12-18T07:44:43;102217.30;;;-5.74;85.91
34696;BME280;20918;51.138;17.370;2022-12-18T07:47:44;102218.16;;;-5.75;85.76
34696;BME280;20918;51.138;17.370;2022-12-18T07:50:45;102231.94;;;-5.75;85.66
34696;BME280;20918;51.138;17.370;2022-12-18T07:53:46;102231.11;;;-5.78;85.64
34696;BME280;20918;51.138;17.370;2022-12-18T07:56:47;102230.23;;;-5.76;85.70
34696;BME280;20918;51.138;17.370;2022-12-18T07:59:48;102234.55;;;-5.76;85.55
34696;BME280;20918;51.138;17.370;2022-12-18T08:02:49;102229.41;;;-5.79;85.29
34696;BME280;20918;51.138;17.370;2022-12-18T08:05:50;102234.18;;;-5.87;85.03
34696;BME280;20918;51.138;17.370;2022-12-18T08:08:55;102241.53;;;-5.88;85.29
34696;BME280;20918;51.138;17.370;2022-12-18T08:11:55;102233.77;;;-5.89;85.33
34696;BME280;20918;51.138;17.370;2022-12-18T08:14:56;102244.94;;;-5.84;85.51
34696;BME280;20918;51.138;17.370;2022-12-18T08:17:57;102240.16;;;-5.78;85.59
34696;BME280;20918;51.138;17.370;2022-12-18T08:21:06;102240.14;;;-5.74;85.60
34696;BME280;20918;51.138;17.370;2022-12-18T08:24:15;102252.63;;;-5.73;85.37
34696;BME280;20918;51.138;17.370;2022-12-18T08:27:16;102272.47;;;-5.75;85.28
34696;BME280;20918;51.138;17.370;2022-12-18T08:30:18;102280.25;;;-5.78;85.24
34696;BME280;20918;51.138;17.370;2022-12-18T08:33:21;102285.83;;;-5.77;85.29
34696;BME280;20918;51.138;17.370;2022-12-18T08:36:21;102294.03;;;-5.76;85.36
34696;BME280;20918;51.138;17.370;2022-12-18T08:39:23;102286.71;;;-5.78;85.22
34696;BME280;20918;51.138;17.370;2022-12-18T08:42:24;102285.42;;;-5.78;85.23
34696;BME280;20918;51.138;17.370;2022-12-18T08:45:43;102289.72;;;-5.74;85.38
34696;BME280;20918;51.138;17.370;2022-12-18T08:48:44;102290.11;;;-5.70;85.23
34696;BME280;20918;51.138;17.370;2022-12-18T08:51:45;102300.02;;;-5.70;84.80
34696;BME280;20918;51.138;17.370;2022-12-18T08:54:46;102312.53;;;-5.72;84.75
34696;BME280;20918;51.138;17.370;2022-12-18T08:57:48;102309.09;;;-5.73;84.85
34696;BME280;20918;51.138;17.370;2022-12-18T09:00:50;102316.38;;;-5.63;85.11
34696;BME280;20918;51.138;17.370;2022-12-18T09:03:51;102308.61;;;-5.65;84.40
34696;BME280;20918;51.138;17.370;2022-12-18T09:06:51;102306.94;;;-5.73;84.30
34696;BME280;20918;51.138;17.370;2022-12-18T09:09:52;102307.33;;;-5.69;84.67
34696;BME280;20918;51.138;17.370;2022-12-18T09:12:53;102307.78;;;-5.68;84.59
34696;BME280;20918;51.138;17.370;2022-12-18T09:15:56;102298.72;;;-5.70;84.58
34696;BME280;20918;51.138;17.370;2022-12-18T09:18:57;102305.19;;;-5.68;84.28
34696;BME280;20918;51.138;17.370;2022-12-18T09:22:02;102308.22;;;-5.70;84.41
34696;BME280;20918;51.138;17.370;2022-12-18T09:25:03;102312.05;;;-5.64;84.49
34696;BME280;20918;51.138;17.370;2022-12-18T09:28:09;102313.76;;;-5.61;84.45
34696;BME280;20918;51.138;17.370;2022-12-18T09:31:10;102293.89;;;-5.58;84.39
34696;BME280;20918;51.138;17.370;2022-12-18T09:34:12;102283.53;;;-5.52;84.30
34696;BME280;20918;51.138;17.370;2022-12-18T09:37:15;102274.84;;;-5.45;84.38
34696;BME280;20918;51.138;17.370;2022-12-18T09:40:23;102266.58;;;-5.36;84.34
34696;BME280;20918;51.138;17.370;2022-12-18T09:46:47;102252.34;;;-5.36;83.40
34696;BME280;20918;51.138;17.370;2022-12-18T09:49:58;102246.75;;;-5.39;83.47
34696;BME280;20918;51.138;17.370;2022-12-18T09:53:02;102242.84;;;-5.36;83.68
34696;BME280;20918;51.138;17.370;2022-12-18T09:56:05;102240.27;;;-5.34;83.44
34696;BME280;20918;51.138;17.370;2022-12-18T10:02:29;102234.58;;;-5.28;82.49
34696;BME280;20918;51.138;17.370;2022-12-18T10:05:37;102244.58;;;-5.36;82.94
34696;BME280;20918;51.138;17.370;2022-12-18T10:18:29;102251.49;;;-5.38;83.15
34696;BME280;20918;51.138;17.370;2022-12-18T10:24:59;102259.25;;;-5.38;83.42
34696;BME280;20918;51.138;17.370;2022-12-18T10:28:14;102264.77;;;-5.24;83.43
34696;BME280;20918;51.138;17.370;2022-12-18T10:31:19;102266.84;;;-5.17;83.22
34696;BME280;20918;51.138;17.370;2022-12-18T10:34:24;102254.69;;;-5.09;83.17
34696;BME280;20918;51.138;17.370;2022-12-18T10:37:25;102251.19;;;-5.03;82.89
34696;BME280;20918;51.138;17.370;2022-12-18T10:40:28;102249.45;;;-5.04;82.12
34696;BME280;20918;51.138;17.370;2022-12-18T10:43:39;102255.55;;;-5.08;82.24
34696;BME280;20918;51.138;17.370;2022-12-18T10:46:40;102240.89;;;-5.11;82.03
34696;BME280;20918;51.138;17.370;2022-12-18T10:49:49;102248.62;;;-5.06;82.38
34696;BME280;20918;51.138;17.370;2022-12-18T10:52:57;102261.22;;;-5.18;81.99
34696;BME280;20918;51.138;17.370;2022-12-18T10:56:02;102258.70;;;-5.24;82.10
34696;BME280;20918;51.138;17.370;2022-12-18T10:59:06;102260.58;;;-5.40;82.03
34696;BME280;20918;51.138;17.370;2022-12-18T11:02:23;102252.84;;;-5.45;82.04
34696;BME280;20918;51.138;17.370;2022-12-18T11:05:30;102255.43;;;-5.43;82.43
34696;BME280;20918;51.138;17.370;2022-12-18T11:08:32;102262.26;;;-5.34;82.51
34696;BME280;20918;51.138;17.370;2022-12-18T11:11:33;102260.02;;;-5.27;82.39
34696;BME280;20918;51.138;17.370;2022-12-18T11:14:42;102259.58;;;-5.25;82.29
34696;BME280;20918;51.138;17.370;2022-12-18T11:17:45;102259.05;;;-5.15;82.34
34696;BME280;20918;51.138;17.370;2022-12-18T11:20:56;102267.09;;;-4.98;82.75
34696;BME280;20918;51.138;17.370;2022-12-18T11:23:58;102259.23;;;-4.88;82.43
34696;BME280;20918;51.138;17.370;2022-12-18T11:27:00;102256.97;;;-4.78;82.62
34696;BME280;20918;51.138;17.370;2022-12-18T11:30:10;102262.93;;;-4.70;82.10
34696;BME280;20918;51.138;17.370;2022-12-18T11:33:26;102269.34;;;-4.65;82.14
34696;BME280;20918;51.138;17.370;2022-12-18T11:36:28;102274.11;;;-4.66;81.82
34696;BME280;20918;51.138;17.370;2022-12-18T11:42:42;102276.22;;;-4.61;82.22
34696;BME280;20918;51.138;17.370;2022-12-18T11:45:50;102273.91;;;-4.49;81.84
34696;BME280;20918;51.138;17.370;2022-12-18T11:52:18;102273.59;;;-4.60;80.32
34696;BME280;20918;51.138;17.370;2022-12-18T11:56:27;102272.85;;;-4.71;80.73
34696;BME280;20918;51.138;17.370;2022-12-18T11:58:46;102275.37;;;-4.65;81.29
34696;BME280;20918;51.138;17.370;2022-12-18T12:01:58;102267.59;;;-4.65;81.07
34696;BME280;20918;51.138;17.370;2022-12-18T12:05:00;102262.08;;;-4.72;80.83
34696;BME280;20918;51.138;17.370;2022-12-18T12:14:49;102260.08;;;-4.86;81.05
34696;BME280;20918;51.138;17.370;2022-12-18T12:24:39;102260.86;;;-4.78;80.31
34696;BME280;20918;51.138;17.370;2022-12-18T12:34:33;102256.67;;;-4.91;80.96
34696;BME280;20918;51.138;17.370;2022-12-18T12:41:02;102247.20;;;-4.92;80.83
34696;BME280;20918;51.138;17.370;2022-12-18T12:44:19;102243.69;;;-4.88;81.05
34696;BME280;20918;51.138;17.370;2022-12-18T12:47:23;102254.72;;;-4.71;81.11
34696;BME280;20918;51.138;17.370;2022-12-18T12:50:26;102249.98;;;-4.71;80.44
34696;BME280;20918;51.138;17.370;2022-12-18T12:53:30;102242.17;;;-4.67;80.83
34696;BME280;20918;51.138;17.370;2022-12-18T12:56:42;102252.57;;;-4.70;80.45
34696;BME280;20918;51.138;17.370;2022-12-18T13:03:27;102250.05;;;-4.79;80.11
34696;BME280;20918;51.138;17.370;2022-12-18T13:06:33;102246.80;;;-4.97;80.30
34696;BME280;20918;51.138;17.370;2022-12-18T13:10:10;102254.59;;;-5.00;80.80
34696;BME280;20918;51.138;17.370;2022-12-18T13:12:59;102262.84;;;-5.05;80.45
34696;BME280;20918;51.138;17.370;2022-12-18T13:16:10;102266.38;;;-5.12;80.31
34696;BME280;20918;51.138;17.370;2022-12-18T13:19:19;102262.96;;;-5.17;80.76
34696;BME280;20918;51.138;17.370;2022-12-18T13:22:28;102271.58;;;-5.16;80.85
34696;BME280;20918;51.138;17.370;2022-12-18T13:25:34;102271.58;;;-5.15;81.03
34696;BME280;20918;51.138;17.370;2022-12-18T13:28:53;102261.73;;;-5.25;80.58
34696;BME280;20918;51.138;17.370;2022-12-18T13:31:58;102250.20;;;-5.38;80.62
34696;BME280;20918;51.138;17.370;2022-12-18T13:38:25;102252.48;;;-5.53;80.92
34696;BME280;20918;51.138;17.370;2022-12-18T13:41:31;102247.41;;;-5.67;80.99
34696;BME280;20918;51.138;17.370;2022-12-18T13:44:33;102257.37;;;-5.71;81.25
34696;BME280;20918;51.138;17.370;2022-12-18T13:47:41;102257.41;;;-5.79;81.18
34696;BME280;20918;51.138;17.370;2022-12-18T13:50:48;102269.06;;;-5.83;81.44
34696;BME280;20918;51.138;17.370;2022-12-18T13:53:53;102272.95;;;-5.83;81.48
34696;BME280;20918;51.138;17.370;2022-12-18T13:56:52;102275.58;;;-5.90;81.43
34696;BME280;20918;51.138;17.370;2022-12-18T13:59:53;102275.62;;;-5.94;81.45
34696;BME280;20918;51.138;17.370;2022-12-18T14:02:55;102274.33;;;-5.94;81.83
34696;BME280;20918;51.138;17.370;2022-12-18T14:06:05;102274.37;;;-6.00;81.71
34696;BME280;20918;51.138;17.370;2022-12-18T14:09:05;102280.45;;;-6.09;81.63
34696;BME280;20918;51.138;17.370;2022-12-18T14:12:06;102280.06;;;-6.18;81.68
34696;BME280;20918;51.138;17.370;2022-12-18T14:18:45;102293.02;;;-6.28;82.01
34696;BME280;20918;51.138;17.370;2022-12-18T14:21:49;102295.20;;;-6.29;82.00
34696;BME280;20918;51.138;17.370;2022-12-18T14:25:04;102291.77;;;-6.35;81.98
34696;BME280;20918;51.138;17.370;2022-12-18T14:28:13;102289.62;;;-6.40;82.11
34696;BME280;20918;51.138;17.370;2022-12-18T14:31:18;102302.14;;;-6.44;82.31
34696;BME280;20918;51.138;17.370;2022-12-18T14:34:27;102309.44;;;-6.45;82.49
34696;BME280;20918;51.138;17.370;2022-12-18T14:37:30;102304.30;;;-6.46;82.66
34696;BME280;20918;51.138;17.370;2022-12-18T14:40:31;102314.22;;;-6.47;82.79
34696;BME280;20918;51.138;17.370;2022-12-18T14:43:36;102319.38;;;-6.47;82.73
34696;BME280;20918;51.138;17.370;2022-12-18T14:46:39;102313.33;;;-6.48;82.69
34696;BME280;20918;51.138;17.370;2022-12-18T14:49:46;102319.36;;;-6.50;82.70
34696;BME280;20918;51.138;17.370;2022-12-18T14:52:47;102323.67;;;-6.51;82.69
34696;BME280;20918;51.138;17.370;2022-12-18T14:55:51;102328.84;;;-6.54;82.77
34696;BME280;20918;51.138;17.370;2022-12-18T14:58:56;102329.73;;;-6.55;82.80
34696;BME280;20918;51.138;17.370;2022-12-18T15:05:17;102341.34;;;-6.60;82.90
34696;BME280;20918;51.138;17.370;2022-12-18T15:08:28;102343.09;;;-6.59;83.13
34696;BME280;20918;51.138;17.370;2022-12-18T15:11:35;102337.49;;;-6.61;83.18
34696;BME280;20918;51.138;17.370;2022-12-18T15:14:44;102333.62;;;-6.64;83.25
34696;BME280;20918;51.138;17.370;2022-12-18T15:17:46;102330.18;;;-6.66;83.37
34696;BME280;20918;51.138;17.370;2022-12-18T15:20:54;102332.77;;;-6.69;83.29
34696;BME280;20918;51.138;17.370;2022-12-18T15:23:57;102328.91;;;-6.72;83.54
34696;BME280;20918;51.138;17.370;2022-12-18T15:26:58;102322.86;;;-6.73;83.47
34696;BME280;20918;51.138;17.370;2022-12-18T15:33:22;102320.27;;;-6.73;83.50
34696;BME280;20918;51.138;17.370;2022-12-18T15:36:25;102322.45;;;-6.77;83.48
34696;BME280;20918;51.138;17.370;2022-12-18T15:39:29;102325.89;;;-6.75;83.61
34696;BME280;20918;51.138;17.370;2022-12-18T15:42:30;102320.30;;;-6.78;83.58
34696;BME280;20918;51.138;17.370;2022-12-18T15:45:50;102325.89;;;-6.80;83.76
34696;BME280;20918;51.138;17.370;2022-12-18T15:48:52;102314.71;;;-6.80;83.75
34696;BME280;20918;51.138;17.370;2022-12-18T15:51:59;102313.84;;;-6.82;83.97
34696;BME280;20918;51.138;17.370;2022-12-18T15:55:00;102309.98;;;-6.85;84.06
34696;BME280;20918;51.138;17.370;2022-12-18T15:58:20;102307.84;;;-6.89;84.12
34696;BME280;20918;51.138;17.370;2022-12-18T16:01:22;102309.55;;;-6.88;83.84
34696;BME280;20918;51.138;17.370;2022-12-18T16:04:26;102313.42;;;-6.88;83.91
34696;BME280;20918;51.138;17.370;2022-12-18T16:07:27;102298.80;;;-6.89;83.80
34696;BME280;20918;51.138;17.370;2022-12-18T16:10:28;102286.34;;;-6.89;83.87
34696;BME280;20918;51.138;17.370;2022-12-18T16:13:29;102286.33;;;-6.91;83.83
34696;BME280;20918;51.138;17.370;2022-12-18T16:16:30;102285.91;;;-6.92;84.01
34696;BME280;20918;51.138;17.370;2022-12-18T16:19:31;102285.05;;;-6.94;83.95
34696;BME280;20918;51.138;17.370;2022-12-18T16:22:32;102271.73;;;-6.98;83.89
34696;BME280;20918;51.138;17.370;2022-12-18T16:25:33;102259.26;;;-7.03;83.99
34696;BME280;20918;51.138;17.370;2022-12-18T16:28:34;102260.13;;;-7.12;84.01
34696;BME280;20918;51.138;17.370;2022-12-18T16:31:36;102260.98;;;-7.19;83.99
34696;BME280;20918;51.138;17.370;2022-12-18T16:34:38;102259.69;;;-7.24;84.06
34696;BME280;20918;51.138;17.370;2022-12-18T16:37:39;102272.59;;;-7.30;83.96
34696;BME280;20918;51.138;17.370;2022-12-18T16:40:41;102275.20;;;-7.34;83.92
34696;BME280;20918;51.138;17.370;2022-12-18T16:43:43;102273.48;;;-7.40;83.85
34696;BME280;20918;51.138;17.370;2022-12-18T16:46:45;102276.89;;;-7.44;84.10
34696;BME280;20918;51.138;17.370;2022-12-18T16:49:47;102274.33;;;-7.50;83.87
34696;BME280;20918;51.138;17.370;2022-12-18T16:52:50;102272.19;;;-7.60;83.77
34696;BME280;20918;51.138;17.370;2022-12-18T16:55:54;102277.73;;;-7.67;83.75
34696;BME280;20918;51.138;17.370;2022-12-18T16:58:56;102278.59;;;-7.72;83.74
34696;BME280;20918;51.138;17.370;2022-12-18T17:01:58;102285.02;;;-7.80;83.81
34696;BME280;20918;51.138;17.370;2022-12-18T17:04:59;102293.20;;;-7.82;84.01
34696;BME280;20918;51.138;17.370;2022-12-18T17:08:00;102288.88;;;-7.83;84.07
34696;BME280;20918;51.138;17.370;2022-12-18T17:11:07;102279.85;;;-7.86;84.13
34696;BME280;20918;51.138;17.370;2022-12-18T17:14:12;102275.13;;;-7.90;84.17
34696;BME280;20918;51.138;17.370;2022-12-18T17:17:15;102266.97;;;-7.97;84.27
34696;BME280;20918;51.138;17.370;2022-12-18T17:20:16;102273.81;;;-8.00;84.29
34696;BME280;20918;51.138;17.370;2022-12-18T17:23:18;102278.95;;;-8.06;84.30